Terminal Aerodrome Forecast
Issued by NWS Cleveland, OH

Home | Current Version | Previous Version | Graphics & Text | Print | Product List | Glossary On
Versions: 1 2 3 4 5 6 7 8 9 10 11 12 13
040
FTUS41 KCLE 240522
TAFTOL
TAF
KTOL 240522Z 2406/2506 27008KT P6SM SCT060
     FM241600 27012G20KT P6SM BKN050
     FM242300 26008KT P6SM SCT050=

USA.gov is the U.S. government's official web portal to all federal, state and local government web resources and services.